sensor_id;sensor_type;location;lat;lon;timestamp;P1;durP1;ratioP1;P2;durP2;ratioP2
56517;SDS011;42419;48.760;2.322;2022-12-07T00:03:51;13.43;;;12.17;;
56517;SDS011;42419;48.760;2.322;2022-12-07T00:06:19;13.00;;;11.60;;
56517;SDS011;42419;48.760;2.322;2022-12-07T00:08:46;12.93;;;11.73;;
56517;SDS011;42419;48.760;2.322;2022-12-07T00:11:22;12.33;;;11.20;;
56517;SDS011;42419;48.760;2.322;2022-12-07T00:13:52;13.20;;;12.00;;
56517;SDS011;42419;48.760;2.322;2022-12-07T00:16:22;13.00;;;11.80;;
56517;SDS011;42419;48.760;2.322;2022-12-07T00:18:49;12.13;;;11.03;;
56517;SDS011;42419;48.760;2.322;2022-12-07T00:21:16;11.77;;;10.77;;
56517;SDS011;42419;48.760;2.322;2022-12-07T00:23:44;13.33;;;12.10;;
56517;SDS011;42419;48.760;2.322;2022-12-07T00:26:14;14.00;;;12.63;;
56517;SDS011;42419;48.760;2.322;2022-12-07T00:28:48;14.10;;;12.80;;
56517;SDS011;42419;48.760;2.322;2022-12-07T00:31:16;13.80;;;12.60;;
56517;SDS011;42419;48.760;2.322;2022-12-07T00:33:43;13.50;;;12.20;;
56517;SDS011;42419;48.760;2.322;2022-12-07T00:36:10;13.47;;;12.10;;
56517;SDS011;42419;48.760;2.322;2022-12-07T00:38:37;13.63;;;12.33;;
56517;SDS011;42419;48.760;2.322;2022-12-07T00:41:04;14.13;;;12.83;;
56517;SDS011;42419;48.760;2.322;2022-12-07T00:43:31;12.47;;;11.37;;
56517;SDS011;42419;48.760;2.322;2022-12-07T00:45:57;12.57;;;11.27;;
56517;SDS011;42419;48.760;2.322;2022-12-07T00:48:22;12.73;;;11.63;;
56517;SDS011;42419;48.760;2.322;2022-12-07T00:50:49;11.93;;;10.83;;
56517;SDS011;42419;48.760;2.322;2022-12-07T00:53:15;12.30;;;11.20;;
56517;SDS011;42419;48.760;2.322;2022-12-07T00:55:41;12.87;;;11.63;;
56517;SDS011;42419;48.760;2.322;2022-12-07T00:58:06;11.97;;;10.80;;
56517;SDS011;42419;48.760;2.322;2022-12-07T01:00:32;11.43;;;10.43;;
56517;SDS011;42419;48.760;2.322;2022-12-07T01:02:59;11.87;;;10.77;;
56517;SDS011;42419;48.760;2.322;2022-12-07T01:05:24;12.80;;;11.50;;
56517;SDS011;42419;48.760;2.322;2022-12-07T01:07:50;12.27;;;11.10;;
56517;SDS011;42419;48.760;2.322;2022-12-07T01:10:15;11.67;;;10.60;;
56517;SDS011;42419;48.760;2.322;2022-12-07T01:12:41;10.80;;;9.80;;
56517;SDS011;42419;48.760;2.322;2022-12-07T01:15:06;11.90;;;10.73;;
56517;SDS011;42419;48.760;2.322;2022-12-07T01:17:32;11.30;;;10.20;;
56517;SDS011;42419;48.760;2.322;2022-12-07T01:19:58;11.53;;;10.30;;
56517;SDS011;42419;48.760;2.322;2022-12-07T01:22:24;12.60;;;11.37;;
56517;SDS011;42419;48.760;2.322;2022-12-07T01:24:49;11.90;;;10.90;;
56517;SDS011;42419;48.760;2.322;2022-12-07T01:27:14;12.10;;;10.93;;
56517;SDS011;42419;48.760;2.322;2022-12-07T01:29:40;12.20;;;11.10;;
56517;SDS011;42419;48.760;2.322;2022-12-07T01:32:05;12.10;;;11.03;;
56517;SDS011;42419;48.760;2.322;2022-12-07T01:34:30;11.70;;;10.67;;
56517;SDS011;42419;48.760;2.322;2022-12-07T01:36:56;11.00;;;9.90;;
56517;SDS011;42419;48.760;2.322;2022-12-07T01:39:22;10.87;;;9.90;;
56517;SDS011;42419;48.760;2.322;2022-12-07T01:41:48;11.17;;;10.17;;
56517;SDS011;42419;48.760;2.322;2022-12-07T01:44:15;11.63;;;10.57;;
56517;SDS011;42419;48.760;2.322;2022-12-07T01:46:41;11.13;;;10.13;;
56517;SDS011;42419;48.760;2.322;2022-12-07T01:49:09;10.63;;;9.70;;
56517;SDS011;42419;48.760;2.322;2022-12-07T01:51:40;12.20;;;11.20;;
56517;SDS011;42419;48.760;2.322;2022-12-07T01:54:07;11.93;;;10.87;;
56517;SDS011;42419;48.760;2.322;2022-12-07T01:56:35;10.73;;;9.73;;
56517;SDS011;42419;48.760;2.322;2022-12-07T01:59:02;11.43;;;10.43;;
56517;SDS011;42419;48.760;2.322;2022-12-07T02:01:27;10.60;;;9.63;;
56517;SDS011;42419;48.760;2.322;2022-12-07T02:03:53;12.40;;;11.20;;
56517;SDS011;42419;48.760;2.322;2022-12-07T02:06:20;11.10;;;10.10;;
56517;SDS011;42419;48.760;2.322;2022-12-07T02:08:49;10.90;;;10.00;;
56517;SDS011;42419;48.760;2.322;2022-12-07T02:11:14;11.30;;;10.30;;
56517;SDS011;42419;48.760;2.322;2022-12-07T02:13:41;10.87;;;9.87;;
56517;SDS011;42419;48.760;2.322;2022-12-07T02:16:18;10.50;;;9.60;;
56517;SDS011;42419;48.760;2.322;2022-12-07T02:19:23;10.23;;;9.27;;
56517;SDS011;42419;48.760;2.322;2022-12-07T02:27:52;10.37;;;9.47;;
56517;SDS011;42419;48.760;2.322;2022-12-07T02:30:27;10.73;;;9.63;;
56517;SDS011;42419;48.760;2.322;2022-12-07T02:33:00;9.93;;;9.03;;
56517;SDS011;42419;48.760;2.322;2022-12-07T02:35:41;9.50;;;8.70;;
56517;SDS011;42419;48.760;2.322;2022-12-07T02:43:46;9.50;;;8.70;;
56517;SDS011;42419;48.760;2.322;2022-12-07T02:46:49;10.53;;;9.60;;
56517;SDS011;42419;48.760;2.322;2022-12-07T02:49:09;11.30;;;10.30;;
56517;SDS011;42419;48.760;2.322;2022-12-07T02:51:38;11.10;;;10.10;;
56517;SDS011;42419;48.760;2.322;2022-12-07T02:54:13;10.43;;;9.53;;
56517;SDS011;42419;48.760;2.322;2022-12-07T02:57:03;9.50;;;8.70;;
56517;SDS011;42419;48.760;2.322;2022-12-07T03:00:04;10.20;;;9.30;;
56517;SDS011;42419;48.760;2.322;2022-12-07T03:07:42;9.50;;;8.70;;
56517;SDS011;42419;48.760;2.322;2022-12-07T03:10:31;9.37;;;8.53;;
56517;SDS011;42419;48.760;2.322;2022-12-07T03:18:23;8.70;;;8.00;;
56517;SDS011;42419;48.760;2.322;2022-12-07T03:20:53;9.63;;;8.83;;
56517;SDS011;42419;48.760;2.322;2022-12-07T03:23:22;9.63;;;8.73;;
56517;SDS011;42419;48.760;2.322;2022-12-07T03:25:52;9.10;;;8.30;;
56517;SDS011;42419;48.760;2.322;2022-12-07T03:28:21;8.47;;;7.77;;
56517;SDS011;42419;48.760;2.322;2022-12-07T03:30:55;9.83;;;8.93;;
56517;SDS011;42419;48.760;2.322;2022-12-07T03:33:36;9.03;;;8.23;;
56517;SDS011;42419;48.760;2.322;2022-12-07T03:36:29;8.87;;;8.07;;
56517;SDS011;42419;48.760;2.322;2022-12-07T03:41:54;9.07;;;8.27;;
56517;SDS011;42419;48.760;2.322;2022-12-07T03:44:22;9.07;;;8.27;;
56517;SDS011;42419;48.760;2.322;2022-12-07T03:49:39;9.27;;;8.47;;
56517;SDS011;42419;48.760;2.322;2022-12-07T03:57:41;9.03;;;8.23;;
56517;SDS011;42419;48.760;2.322;2022-12-07T04:00:08;8.77;;;7.97;;
56517;SDS011;42419;48.760;2.322;2022-12-07T04:02:35;8.07;;;7.37;;
56517;SDS011;42419;48.760;2.322;2022-12-07T04:05:01;8.33;;;7.63;;
56517;SDS011;42419;48.760;2.322;2022-12-07T04:07:27;8.23;;;7.53;;
56517;SDS011;42419;48.760;2.322;2022-12-07T04:09:52;9.00;;;8.20;;
56517;SDS011;42419;48.760;2.322;2022-12-07T04:12:19;8.93;;;8.13;;
56517;SDS011;42419;48.760;2.322;2022-12-07T04:14:45;8.20;;;7.50;;
56517;SDS011;42419;48.760;2.322;2022-12-07T04:17:10;8.93;;;8.23;;
56517;SDS011;42419;48.760;2.322;2022-12-07T04:19:36;8.50;;;7.70;;
56517;SDS011;42419;48.760;2.322;2022-12-07T04:22:02;7.70;;;7.10;;
56517;SDS011;42419;48.760;2.322;2022-12-07T04:24:29;7.83;;;7.23;;
56517;SDS011;42419;48.760;2.322;2022-12-07T04:26:54;8.30;;;7.60;;
56517;SDS011;42419;48.760;2.322;2022-12-07T04:29:20;7.73;;;7.13;;
56517;SDS011;42419;48.760;2.322;2022-12-07T04:31:46;7.47;;;6.87;;
56517;SDS011;42419;48.760;2.322;2022-12-07T04:34:12;7.90;;;7.27;;
56517;SDS011;42419;48.760;2.322;2022-12-07T04:36:38;8.00;;;7.30;;
56517;SDS011;42419;48.760;2.322;2022-12-07T04:39:05;8.17;;;7.57;;
56517;SDS011;42419;48.760;2.322;2022-12-07T04:41:32;7.60;;;6.93;;
56517;SDS011;42419;48.760;2.322;2022-12-07T04:43:59;7.10;;;6.50;;
56517;SDS011;42419;48.760;2.322;2022-12-07T04:46:28;7.50;;;6.90;;
56517;SDS011;42419;48.760;2.322;2022-12-07T04:48:56;7.70;;;7.10;;
56517;SDS011;42419;48.760;2.322;2022-12-07T04:51:22;6.97;;;6.37;;
56517;SDS011;42419;48.760;2.322;2022-12-07T04:53:49;7.73;;;7.10;;
56517;SDS011;42419;48.760;2.322;2022-12-07T04:56:16;7.03;;;6.33;;
56517;SDS011;42419;48.760;2.322;2022-12-07T04:58:42;7.10;;;6.50;;
56517;SDS011;42419;48.760;2.322;2022-12-07T05:01:09;7.57;;;6.97;;
56517;SDS011;42419;48.760;2.322;2022-12-07T05:03:35;7.60;;;7.00;;
56517;SDS011;42419;48.760;2.322;2022-12-07T05:06:01;6.90;;;6.30;;
56517;SDS011;42419;48.760;2.322;2022-12-07T05:08:27;6.87;;;6.27;;
56517;SDS011;42419;48.760;2.322;2022-12-07T05:10:52;6.97;;;6.47;;
56517;SDS011;42419;48.760;2.322;2022-12-07T05:13:17;7.10;;;6.50;;
56517;SDS011;42419;48.760;2.322;2022-12-07T05:15:42;6.43;;;5.93;;
56517;SDS011;42419;48.760;2.322;2022-12-07T05:18:09;6.70;;;6.10;;
56517;SDS011;42419;48.760;2.322;2022-12-07T05:20:36;6.93;;;6.33;;
56517;SDS011;42419;48.760;2.322;2022-12-07T05:23:02;6.20;;;5.70;;
56517;SDS011;42419;48.760;2.322;2022-12-07T05:25:27;7.27;;;6.67;;
56517;SDS011;42419;48.760;2.322;2022-12-07T05:27:54;6.90;;;6.30;;
56517;SDS011;42419;48.760;2.322;2022-12-07T05:30:20;6.13;;;5.63;;
56517;SDS011;42419;48.760;2.322;2022-12-07T05:32:45;6.40;;;5.90;;
56517;SDS011;42419;48.760;2.322;2022-12-07T05:35:11;5.90;;;5.40;;
56517;SDS011;42419;48.760;2.322;2022-12-07T05:37:36;6.10;;;5.60;;
56517;SDS011;42419;48.760;2.322;2022-12-07T05:40:02;6.97;;;6.47;;
56517;SDS011;42419;48.760;2.322;2022-12-07T05:42:28;5.80;;;5.40;;
56517;SDS011;42419;48.760;2.322;2022-12-07T05:44:53;7.07;;;6.37;;
56517;SDS011;42419;48.760;2.322;2022-12-07T05:47:18;6.13;;;5.70;;
56517;SDS011;42419;48.760;2.322;2022-12-07T05:49:44;6.57;;;6.03;;
56517;SDS011;42419;48.760;2.322;2022-12-07T05:52:09;6.10;;;5.60;;
56517;SDS011;42419;48.760;2.322;2022-12-07T05:54:35;6.87;;;6.27;;
56517;SDS011;42419;48.760;2.322;2022-12-07T05:57:00;5.80;;;5.40;;
56517;SDS011;42419;48.760;2.322;2022-12-07T05:59:25;6.03;;;5.47;;
56517;SDS011;42419;48.760;2.322;2022-12-07T06:04:17;5.90;;;5.40;;
56517;SDS011;42419;48.760;2.322;2022-12-07T06:06:44;6.23;;;5.83;;
56517;SDS011;42419;48.760;2.322;2022-12-07T06:09:09;5.90;;;5.50;;
56517;SDS011;42419;48.760;2.322;2022-12-07T06:11:34;6.63;;;6.13;;
56517;SDS011;42419;48.760;2.322;2022-12-07T06:14:19;6.37;;;5.87;;
56517;SDS011;42419;48.760;2.322;2022-12-07T06:16:44;5.73;;;5.33;;
56517;SDS011;42419;48.760;2.322;2022-12-07T06:19:09;5.80;;;5.40;;
56517;SDS011;42419;48.760;2.322;2022-12-07T06:21:35;5.73;;;5.33;;
56517;SDS011;42419;48.760;2.322;2022-12-07T06:24:00;5.80;;;5.30;;
56517;SDS011;42419;48.760;2.322;2022-12-07T06:26:26;6.00;;;5.50;;
56517;SDS011;42419;48.760;2.322;2022-12-07T06:28:52;5.43;;;5.03;;
56517;SDS011;42419;48.760;2.322;2022-12-07T06:31:18;5.47;;;5.07;;
56517;SDS011;42419;48.760;2.322;2022-12-07T06:33:43;5.10;;;4.80;;
56517;SDS011;42419;48.760;2.322;2022-12-07T06:36:09;5.87;;;5.37;;
56517;SDS011;42419;48.760;2.322;2022-12-07T06:38:34;5.60;;;5.20;;
56517;SDS011;42419;48.760;2.322;2022-12-07T06:41:00;5.53;;;5.13;;
56517;SDS011;42419;48.760;2.322;2022-12-07T06:43:25;6.27;;;5.77;;
56517;SDS011;42419;48.760;2.322;2022-12-07T06:45:50;5.80;;;5.30;;
56517;SDS011;42419;48.760;2.322;2022-12-07T06:48:16;6.27;;;5.77;;
56517;SDS011;42419;48.760;2.322;2022-12-07T06:50:43;5.27;;;4.87;;
56517;SDS011;42419;48.760;2.322;2022-12-07T06:53:10;5.77;;;5.37;;
56517;SDS011;42419;48.760;2.322;2022-12-07T06:55:35;6.40;;;5.90;;
56517;SDS011;42419;48.760;2.322;2022-12-07T06:58:00;6.00;;;5.50;;
56517;SDS011;42419;48.760;2.322;2022-12-07T07:00:26;5.40;;;5.00;;
56517;SDS011;42419;48.760;2.322;2022-12-07T07:02:52;6.40;;;5.23;;
56517;SDS011;42419;48.760;2.322;2022-12-07T07:05:17;6.23;;;5.73;;
56517;SDS011;42419;48.760;2.322;2022-12-07T07:07:42;6.73;;;5.90;;
56517;SDS011;42419;48.760;2.322;2022-12-07T07:10:08;8.53;;;6.30;;
56517;SDS011;42419;48.760;2.322;2022-12-07T07:12:34;8.30;;;6.90;;
56517;SDS011;42419;48.760;2.322;2022-12-07T07:14:59;11.80;;;7.27;;
56517;SDS011;42419;48.760;2.322;2022-12-07T07:17:24;7.93;;;6.27;;
56517;SDS011;42419;48.760;2.322;2022-12-07T07:19:49;7.97;;;6.70;;
56517;SDS011;42419;48.760;2.322;2022-12-07T07:22:15;9.13;;;6.47;;
56517;SDS011;42419;48.760;2.322;2022-12-07T07:24:40;10.47;;;6.57;;
56517;SDS011;42419;48.760;2.322;2022-12-07T07:27:05;8.13;;;6.77;;
56517;SDS011;42419;48.760;2.322;2022-12-07T07:29:31;7.70;;;6.57;;
56517;SDS011;42419;48.760;2.322;2022-12-07T07:31:56;7.73;;;6.20;;
56517;SDS011;42419;48.760;2.322;2022-12-07T07:34:21;7.10;;;6.40;;
56517;SDS011;42419;48.760;2.322;2022-12-07T07:36:47;7.30;;;6.03;;
56517;SDS011;42419;48.760;2.322;2022-12-07T07:39:12;6.70;;;6.10;;
56517;SDS011;42419;48.760;2.322;2022-12-07T07:41:37;8.17;;;6.47;;
56517;SDS011;42419;48.760;2.322;2022-12-07T07:44:03;8.30;;;6.00;;
56517;SDS011;42419;48.760;2.322;2022-12-07T07:46:29;9.57;;;6.30;;
56517;SDS011;42419;48.760;2.322;2022-12-07T07:48:54;6.70;;;5.93;;
56517;SDS011;42419;48.760;2.322;2022-12-07T07:51:19;6.20;;;5.70;;
56517;SDS011;42419;48.760;2.322;2022-12-07T07:53:45;6.80;;;6.10;;
56517;SDS011;42419;48.760;2.322;2022-12-07T07:56:11;6.53;;;5.83;;
56517;SDS011;42419;48.760;2.322;2022-12-07T07:58:36;6.20;;;5.70;;
56517;SDS011;42419;48.760;2.322;2022-12-07T08:01:04;6.87;;;6.23;;
56517;SDS011;42419;48.760;2.322;2022-12-07T08:03:30;6.30;;;5.50;;
56517;SDS011;42419;48.760;2.322;2022-12-07T08:05:56;8.57;;;6.47;;
56517;SDS011;42419;48.760;2.322;2022-12-07T08:08:21;5.90;;;5.40;;
56517;SDS011;42419;48.760;2.322;2022-12-07T08:10:47;6.10;;;5.50;;
56517;SDS011;42419;48.760;2.322;2022-12-07T08:13:13;6.40;;;5.80;;
56517;SDS011;42419;48.760;2.322;2022-12-07T08:15:41;7.47;;;5.90;;
56517;SDS011;42419;48.760;2.322;2022-12-07T08:18:11;6.47;;;5.97;;
56517;SDS011;42419;48.760;2.322;2022-12-07T08:20:38;6.10;;;5.40;;
56517;SDS011;42419;48.760;2.322;2022-12-07T08:23:04;6.47;;;5.87;;
56517;SDS011;42419;48.760;2.322;2022-12-07T08:25:31;5.93;;;5.40;;
56517;SDS011;42419;48.760;2.322;2022-12-07T08:27:56;6.20;;;5.60;;
56517;SDS011;42419;48.760;2.322;2022-12-07T08:30:21;5.47;;;4.97;;
56517;SDS011;42419;48.760;2.322;2022-12-07T08:32:47;5.90;;;5.40;;
56517;SDS011;42419;48.760;2.322;2022-12-07T08:35:13;6.23;;;5.73;;
56517;SDS011;42419;48.760;2.322;2022-12-07T08:37:39;6.03;;;5.53;;
56517;SDS011;42419;48.760;2.322;2022-12-07T08:40:06;10.40;;;5.83;;
56517;SDS011;42419;48.760;2.322;2022-12-07T08:42:32;7.03;;;6.33;;
56517;SDS011;42419;48.760;2.322;2022-12-07T08:45:05;6.33;;;5.80;;
56517;SDS011;42419;48.760;2.322;2022-12-07T08:47:32;6.47;;;5.90;;
56517;SDS011;42419;48.760;2.322;2022-12-07T08:49:58;6.53;;;5.83;;
56517;SDS011;42419;48.760;2.322;2022-12-07T08:52:28;5.17;;;4.73;;
56517;SDS011;42419;48.760;2.322;2022-12-07T08:54:56;5.57;;;5.07;;
56517;SDS011;42419;48.760;2.322;2022-12-07T08:57:23;5.60;;;5.10;;
56517;SDS011;42419;48.760;2.322;2022-12-07T08:59:49;5.63;;;5.13;;
56517;SDS011;42419;48.760;2.322;2022-12-07T09:02:14;5.70;;;5.20;;
56517;SDS011;42419;48.760;2.322;2022-12-07T09:04:40;5.37;;;4.97;;
56517;SDS011;42419;48.760;2.322;2022-12-07T09:07:05;6.17;;;5.60;;
56517;SDS011;42419;48.760;2.322;2022-12-07T09:09:31;5.63;;;5.10;;
56517;SDS011;42419;48.760;2.322;2022-12-07T09:11:56;5.30;;;4.90;;
56517;SDS011;42419;48.760;2.322;2022-12-07T09:14:22;5.70;;;5.20;;
56517;SDS011;42419;48.760;2.322;2022-12-07T09:16:47;5.20;;;4.80;;
56517;SDS011;42419;48.760;2.322;2022-12-07T09:19:12;5.73;;;5.23;;
56517;SDS011;42419;48.760;2.322;2022-12-07T09:21:38;6.10;;;5.57;;
56517;SDS011;42419;48.760;2.322;2022-12-07T09:24:03;5.30;;;4.90;;
56517;SDS011;42419;48.760;2.322;2022-12-07T09:26:28;5.60;;;5.10;;
56517;SDS011;42419;48.760;2.322;2022-12-07T09:28:54;5.63;;;5.13;;
56517;SDS011;42419;48.760;2.322;2022-12-07T09:31:19;5.40;;;5.00;;
56517;SDS011;42419;48.760;2.322;2022-12-07T09:33:44;5.67;;;5.20;;
56517;SDS011;42419;48.760;2.322;2022-12-07T09:36:10;6.23;;;4.67;;
56517;SDS011;42419;48.760;2.322;2022-12-07T09:38:35;5.30;;;4.83;;
56517;SDS011;42419;48.760;2.322;2022-12-07T09:41:05;5.20;;;4.80;;
56517;SDS011;42419;48.760;2.322;2022-12-07T09:43:31;5.80;;;5.20;;
56517;SDS011;42419;48.760;2.322;2022-12-07T09:45:59;5.60;;;4.97;;
56517;SDS011;42419;48.760;2.322;2022-12-07T09:48:36;5.67;;;5.23;;
56517;SDS011;42419;48.760;2.322;2022-12-07T09:51:09;5.17;;;4.77;;
56517;SDS011;42419;48.760;2.322;2022-12-07T09:53:42;5.53;;;5.03;;
56517;SDS011;42419;48.760;2.322;2022-12-07T09:56:13;5.27;;;4.87;;
56517;SDS011;42419;48.760;2.322;2022-12-07T09:58:40;5.23;;;4.73;;
56517;SDS011;42419;48.760;2.322;2022-12-07T10:03:32;5.27;;;4.77;;
56517;SDS011;42419;48.760;2.322;2022-12-07T10:05:57;4.93;;;4.50;;
56517;SDS011;42419;48.760;2.322;2022-12-07T10:08:24;4.83;;;4.43;;
56517;SDS011;42419;48.760;2.322;2022-12-07T10:10:51;5.00;;;4.60;;
56517;SDS011;42419;48.760;2.322;2022-12-07T10:13:19;4.93;;;4.53;;
56517;SDS011;42419;48.760;2.322;2022-12-07T10:15:51;5.57;;;5.17;;
56517;SDS011;42419;48.760;2.322;2022-12-07T10:20:59;6.00;;;4.90;;
56517;SDS011;42419;48.760;2.322;2022-12-07T10:23:27;5.10;;;4.70;;
56517;SDS011;42419;48.760;2.322;2022-12-07T10:25:52;5.53;;;5.03;;
56517;SDS011;42419;48.760;2.322;2022-12-07T10:28:20;4.83;;;4.43;;
56517;SDS011;42419;48.760;2.322;2022-12-07T10:31:03;5.70;;;5.10;;
56517;SDS011;42419;48.760;2.322;2022-12-07T10:33:54;4.97;;;4.57;;
56517;SDS011;42419;48.760;2.322;2022-12-07T10:36:26;5.67;;;4.50;;
56517;SDS011;42419;48.760;2.322;2022-12-07T10:39:02;4.60;;;4.30;;
56517;SDS011;42419;48.760;2.322;2022-12-07T10:41:52;6.53;;;4.90;;
56517;SDS011;42419;48.760;2.322;2022-12-07T10:44:21;4.93;;;4.43;;
56517;SDS011;42419;48.760;2.322;2022-12-07T10:57:47;4.40;;;4.10;;
56517;SDS011;42419;48.760;2.322;2022-12-07T11:05:56;3.87;;;3.57;;
56517;SDS011;42419;48.760;2.322;2022-12-07T11:14:10;5.03;;;4.60;;
56517;SDS011;42419;48.760;2.322;2022-12-07T11:25:32;3.73;;;3.43;;
56517;SDS011;42419;48.760;2.322;2022-12-07T11:33:27;4.43;;;4.03;;
56517;SDS011;42419;48.760;2.322;2022-12-07T11:41:05;4.10;;;3.70;;
56517;SDS011;42419;48.760;2.322;2022-12-07T11:43:37;4.43;;;4.03;;
56517;SDS011;42419;48.760;2.322;2022-12-07T11:46:15;4.30;;;3.90;;
56517;SDS011;42419;48.760;2.322;2022-12-07T11:49:02;4.40;;;4.00;;
56517;SDS011;42419;48.760;2.322;2022-12-07T11:51:34;4.30;;;3.90;;
56517;SDS011;42419;48.760;2.322;2022-12-07T11:54:05;3.67;;;3.37;;
56517;SDS011;42419;48.760;2.322;2022-12-07T11:56:40;4.10;;;3.30;;
56517;SDS011;42419;48.760;2.322;2022-12-07T11:59:29;5.07;;;3.97;;
56517;SDS011;42419;48.760;2.322;2022-12-07T12:02:03;5.00;;;3.83;;
56517;SDS011;42419;48.760;2.322;2022-12-07T12:07:10;4.23;;;3.50;;
56517;SDS011;42419;48.760;2.322;2022-12-07T12:12:46;4.37;;;3.97;;
56517;SDS011;42419;48.760;2.322;2022-12-07T12:20:45;3.53;;;3.23;;
56517;SDS011;42419;48.760;2.322;2022-12-07T12:25:50;3.80;;;3.40;;
56517;SDS011;42419;48.760;2.322;2022-12-07T12:31:07;3.17;;;2.87;;
56517;SDS011;42419;48.760;2.322;2022-12-07T12:33:32;3.63;;;3.33;;
56517;SDS011;42419;48.760;2.322;2022-12-07T12:37:00;3.17;;;2.97;;
56517;SDS011;42419;48.760;2.322;2022-12-07T12:51:53;3.53;;;3.23;;
56517;SDS011;42419;48.760;2.322;2022-12-07T12:54:32;3.97;;;3.30;;
56517;SDS011;42419;48.760;2.322;2022-12-07T12:57:17;4.37;;;3.77;;
56517;SDS011;42419;48.760;2.322;2022-12-07T13:04:55;3.47;;;3.17;;
56517;SDS011;42419;48.760;2.322;2022-12-07T13:23:33;3.20;;;2.90;;
56517;SDS011;42419;48.760;2.322;2022-12-07T13:26:04;3.37;;;3.07;;
56517;SDS011;42419;48.760;2.322;2022-12-07T13:28:50;3.07;;;2.70;;
56517;SDS011;42419;48.760;2.322;2022-12-07T13:37:01;3.50;;;3.03;;
56517;SDS011;42419;48.760;2.322;2022-12-07T13:39:35;3.27;;;3.03;;
56517;SDS011;42419;48.760;2.322;2022-12-07T13:42:15;3.70;;;3.40;;
56517;SDS011;42419;48.760;2.322;2022-12-07T13:44:48;3.50;;;3.20;;
56517;SDS011;42419;48.760;2.322;2022-12-07T13:50:25;4.00;;;3.23;;
56517;SDS011;42419;48.760;2.322;2022-12-07T13:52:55;3.50;;;3.20;;
56517;SDS011;42419;48.760;2.322;2022-12-07T13:55:25;3.80;;;3.50;;
56517;SDS011;42419;48.760;2.322;2022-12-07T13:57:53;3.63;;;3.30;;
56517;SDS011;42419;48.760;2.322;2022-12-07T14:00:23;4.10;;;3.30;;
56517;SDS011;42419;48.760;2.322;2022-12-07T14:03:00;3.33;;;2.97;;
56517;SDS011;42419;48.760;2.322;2022-12-07T14:06:02;3.40;;;3.10;;
56517;SDS011;42419;48.760;2.322;2022-12-07T14:08:50;3.43;;;2.90;;
56517;SDS011;42419;48.760;2.322;2022-12-07T14:11:17;3.90;;;3.07;;
56517;SDS011;42419;48.760;2.322;2022-12-07T14:16:23;3.83;;;3.27;;
56517;SDS011;42419;48.760;2.322;2022-12-07T14:18:52;3.70;;;3.40;;
56517;SDS011;42419;48.760;2.322;2022-12-07T14:21:20;3.83;;;3.30;;
56517;SDS011;42419;48.760;2.322;2022-12-07T14:26:40;3.90;;;3.50;;
56517;SDS011;42419;48.760;2.322;2022-12-07T14:31:50;3.80;;;3.27;;
56517;SDS011;42419;48.760;2.322;2022-12-07T14:34:16;4.20;;;3.47;;
56517;SDS011;42419;48.760;2.322;2022-12-07T14:36:45;3.70;;;3.40;;
56517;SDS011;42419;48.760;2.322;2022-12-07T14:39:10;6.13;;;2.93;;
56517;SDS011;42419;48.760;2.322;2022-12-07T14:41:35;3.60;;;3.30;;
56517;SDS011;42419;48.760;2.322;2022-12-07T14:44:16;4.00;;;3.63;;
56517;SDS011;42419;48.760;2.322;2022-12-07T14:46:42;4.43;;;4.00;;
56517;SDS011;42419;48.760;2.322;2022-12-07T14:49:08;4.13;;;3.43;;
56517;SDS011;42419;48.760;2.322;2022-12-07T14:51:33;4.70;;;3.03;;
56517;SDS011;42419;48.760;2.322;2022-12-07T14:54:05;3.70;;;3.40;;
56517;SDS011;42419;48.760;2.322;2022-12-07T14:56:34;3.50;;;3.20;;
56517;SDS011;42419;48.760;2.322;2022-12-07T14:58:59;4.00;;;3.60;;
56517;SDS011;42419;48.760;2.322;2022-12-07T15:01:25;4.20;;;3.90;;
56517;SDS011;42419;48.760;2.322;2022-12-07T15:03:50;4.47;;;3.90;;
56517;SDS011;42419;48.760;2.322;2022-12-07T15:06:16;5.17;;;3.87;;
56517;SDS011;42419;48.760;2.322;2022-12-07T15:08:42;4.10;;;3.70;;
56517;SDS011;42419;48.760;2.322;2022-12-07T15:11:13;3.53;;;3.10;;
56517;SDS011;42419;48.760;2.322;2022-12-07T15:13:40;3.47;;;3.17;;
56517;SDS011;42419;48.760;2.322;2022-12-07T15:16:23;3.87;;;3.47;;
56517;SDS011;42419;48.760;2.322;2022-12-07T15:18:49;4.03;;;3.33;;
56517;SDS011;42419;48.760;2.322;2022-12-07T15:21:14;4.17;;;3.80;;
56517;SDS011;42419;48.760;2.322;2022-12-07T15:23:40;3.50;;;3.20;;
56517;SDS011;42419;48.760;2.322;2022-12-07T15:26:06;3.67;;;3.37;;
56517;SDS011;42419;48.760;2.322;2022-12-07T15:28:32;3.90;;;3.60;;
56517;SDS011;42419;48.760;2.322;2022-12-07T15:30:58;5.30;;;3.70;;
56517;SDS011;42419;48.760;2.322;2022-12-07T15:33:23;3.50;;;3.10;;
56517;SDS011;42419;48.760;2.322;2022-12-07T15:35:48;3.73;;;3.27;;
56517;SDS011;42419;48.760;2.322;2022-12-07T15:38:14;4.20;;;3.90;;
56517;SDS011;42419;48.760;2.322;2022-12-07T15:40:39;3.90;;;3.57;;
56517;SDS011;42419;48.760;2.322;2022-12-07T15:43:05;4.80;;;4.30;;
56517;SDS011;42419;48.760;2.322;2022-12-07T15:45:50;4.50;;;4.10;;
56517;SDS011;42419;48.760;2.322;2022-12-07T15:48:15;3.63;;;3.23;;
56517;SDS011;42419;48.760;2.322;2022-12-07T15:50:41;4.97;;;3.53;;
56517;SDS011;42419;48.760;2.322;2022-12-07T15:53:06;3.60;;;3.30;;
56517;SDS011;42419;48.760;2.322;2022-12-07T15:55:31;3.30;;;3.00;;
56517;SDS011;42419;48.760;2.322;2022-12-07T15:57:56;4.30;;;3.90;;
56517;SDS011;42419;48.760;2.322;2022-12-07T16:00:22;5.57;;;4.20;;
56517;SDS011;42419;48.760;2.322;2022-12-07T16:02:47;3.90;;;3.30;;
56517;SDS011;42419;48.760;2.322;2022-12-07T16:05:12;3.93;;;3.63;;
56517;SDS011;42419;48.760;2.322;2022-12-07T16:07:38;3.60;;;3.30;;
56517;SDS011;42419;48.760;2.322;2022-12-07T16:10:03;5.33;;;3.70;;
56517;SDS011;42419;48.760;2.322;2022-12-07T16:12:29;5.20;;;3.80;;
56517;SDS011;42419;48.760;2.322;2022-12-07T16:14:54;4.10;;;3.70;;
56517;SDS011;42419;48.760;2.322;2022-12-07T16:17:19;4.23;;;3.73;;
56517;SDS011;42419;48.760;2.322;2022-12-07T16:19:45;4.07;;;3.67;;
56517;SDS011;42419;48.760;2.322;2022-12-07T16:22:10;4.97;;;3.90;;
56517;SDS011;42419;48.760;2.322;2022-12-07T16:24:35;4.20;;;3.80;;
56517;SDS011;42419;48.760;2.322;2022-12-07T16:27:01;4.20;;;3.57;;
56517;SDS011;42419;48.760;2.322;2022-12-07T16:29:26;5.77;;;3.60;;
56517;SDS011;42419;48.760;2.322;2022-12-07T16:31:51;4.00;;;3.70;;
56517;SDS011;42419;48.760;2.322;2022-12-07T16:34:17;4.30;;;3.63;;
56517;SDS011;42419;48.760;2.322;2022-12-07T16:36:43;4.50;;;4.10;;
56517;SDS011;42419;48.760;2.322;2022-12-07T16:39:09;4.27;;;3.70;;
56517;SDS011;42419;48.760;2.322;2022-12-07T16:41:34;3.87;;;3.57;;
56517;SDS011;42419;48.760;2.322;2022-12-07T16:44:02;4.20;;;3.80;;
56517;SDS011;42419;48.760;2.322;2022-12-07T16:46:30;3.93;;;3.63;;
56517;SDS011;42419;48.760;2.322;2022-12-07T16:48:57;3.90;;;3.50;;
56517;SDS011;42419;48.760;2.322;2022-12-07T16:51:23;4.17;;;3.80;;
56517;SDS011;42419;48.760;2.322;2022-12-07T16:53:48;4.70;;;3.70;;
56517;SDS011;42419;48.760;2.322;2022-12-07T16:56:14;4.87;;;4.00;;
56517;SDS011;42419;48.760;2.322;2022-12-07T16:58:41;4.30;;;3.83;;
56517;SDS011;42419;48.760;2.322;2022-12-07T17:01:11;3.97;;;3.50;;
56517;SDS011;42419;48.760;2.322;2022-12-07T17:03:38;4.47;;;3.70;;
56517;SDS011;42419;48.760;2.322;2022-12-07T17:06:03;4.10;;;3.50;;
56517;SDS011;42419;48.760;2.322;2022-12-07T17:08:36;3.77;;;3.47;;
56517;SDS011;42419;48.760;2.322;2022-12-07T17:11:02;3.83;;;3.40;;
56517;SDS011;42419;48.760;2.322;2022-12-07T17:13:35;4.60;;;3.90;;
56517;SDS011;42419;48.760;2.322;2022-12-07T17:16:19;4.67;;;3.90;;
56517;SDS011;42419;48.760;2.322;2022-12-07T17:18:44;4.13;;;3.70;;
56517;SDS011;42419;48.760;2.322;2022-12-07T17:21:09;3.97;;;3.57;;
56517;SDS011;42419;48.760;2.322;2022-12-07T17:23:35;5.20;;;3.73;;